Decoded Metar for VOBL (Bengaluru in INDIA) (IATA:N/A) | Meteo·Mobile Aviation Weather
aviador You're here:

VOBL Decoded Metar

Bengaluru in INDIA
Report Time2018-11-16 07:00:00
UTC Time2018-11-16 07:32:00
Flight Rules vfr VFR
Wind090° at 17 kt
W.Decomp.*RWY 09: 17.0 kt HW 0.3 kt RCW
W.Rank090° ranks 8
Current wind is above 090° avg. (6.7)
Visibility9999 m
Phenomena:N/A
Clouds:Few 010 Hf
Scattered 015 Hf
Expected CloudBase > 3,600 ft AGL from Temp-Dew spread
CeilingNone
Temp26°C (ISA +17)
Dew Point17°C (58% RH)
AAT22.3°C
QNH1016 hPa
Density Alt5,115 ft
Elevation3,002 ft
Report Wrong Elevation
Raw Report
METAR VOBL 160700Z 09017KT 9999 FEW010 SCT015 26/17 Q1016 NOSIG=

Extra information for VOBL:More info

Metar Taf Metar & Taf Last 4 Metars F.Rules Stats Wind Profile Meteogram Temp Stats Airport Information Weather charts Add Link Nearby VenuesMetar ALERT Operation Metar Decoded Social comments